sensor_id;sensor_type;location;lat;lon;timestamp;temperature;humidity
4596;DHT22;2310;49.978;8.742;2024-02-21T00:03:02;10.50;99.90
4596;DHT22;2310;49.978;8.742;2024-02-21T00:07:10;10.50;99.90
4596;DHT22;2310;49.978;8.742;2024-02-21T00:11:11;10.40;99.90
4596;DHT22;2310;49.978;8.742;2024-02-21T00:15:13;10.20;99.90
4596;DHT22;2310;49.978;8.742;2024-02-21T00:19:14;10.50;99.90
4596;DHT22;2310;49.978;8.742;2024-02-21T00:23:16;10.50;99.90
4596;DHT22;2310;49.978;8.742;2024-02-21T00:27:17;10.50;99.90
4596;DHT22;2310;49.978;8.742;2024-02-21T00:31:18;10.40;99.90
4596;DHT22;2310;49.978;8.742;2024-02-21T00:35:20;10.40;99.90
4596;DHT22;2310;49.978;8.742;2024-02-21T00:39:21;10.30;99.90
4596;DHT22;2310;49.978;8.742;2024-02-21T00:43:22;10.10;99.90
4596;DHT22;2310;49.978;8.742;2024-02-21T00:47:25;10.20;99.90
4596;DHT22;2310;49.978;8.742;2024-02-21T00:51:27;10.40;99.90
4596;DHT22;2310;49.978;8.742;2024-02-21T00:55:28;10.20;99.90
4596;DHT22;2310;49.978;8.742;2024-02-21T00:59:29;10.30;99.90
4596;DHT22;2310;49.978;8.742;2024-02-21T01:03:31;10.30;99.90
4596;DHT22;2310;49.978;8.742;2024-02-21T01:07:32;10.20;99.90
4596;DHT22;2310;49.978;8.742;2024-02-21T01:11:33;10.40;99.90
4596;DHT22;2310;49.978;8.742;2024-02-21T01:15:35;10.40;99.90
4596;DHT22;2310;49.978;8.742;2024-02-21T01:19:36;10.10;99.90
4596;DHT22;2310;49.978;8.742;2024-02-21T01:23:38;10.30;99.90
4596;DHT22;2310;49.978;8.742;2024-02-21T01:27:39;10.40;99.90
4596;DHT22;2310;49.978;8.742;2024-02-21T01:31:41;10.40;99.90
4596;DHT22;2310;49.978;8.742;2024-02-21T01:35:42;10.50;99.90
4596;DHT22;2310;49.978;8.742;2024-02-21T01:39:43;10.50;99.90
4596;DHT22;2310;49.978;8.742;2024-02-21T01:43:45;10.60;99.90
4596;DHT22;2310;49.978;8.742;2024-02-21T01:47:47;10.50;99.90
4596;DHT22;2310;49.978;8.742;2024-02-21T01:51:49;10.20;99.90
4596;DHT22;2310;49.978;8.742;2024-02-21T01:55:50;10.40;99.90
4596;DHT22;2310;49.978;8.742;2024-02-21T01:59:52;10.50;99.90
4596;DHT22;2310;49.978;8.742;2024-02-21T02:03:55;10.50;99.90
4596;DHT22;2310;49.978;8.742;2024-02-21T02:07:56;10.30;99.90
4596;DHT22;2310;49.978;8.742;2024-02-21T02:11:58;10.30;99.90
4596;DHT22;2310;49.978;8.742;2024-02-21T02:16:00;10.10;99.90
4596;DHT22;2310;49.978;8.742;2024-02-21T02:20:01;10.20;99.90
4596;DHT22;2310;49.978;8.742;2024-02-21T02:24:03;10.10;99.90
4596;DHT22;2310;49.978;8.742;2024-02-21T02:28:06;10.10;99.90
4596;DHT22;2310;49.978;8.742;2024-02-21T02:32:08;10.10;99.90
4596;DHT22;2310;49.978;8.742;2024-02-21T02:36:10;10.20;99.90
4596;DHT22;2310;49.978;8.742;2024-02-21T02:40:11;10.10;99.90
4596;DHT22;2310;49.978;8.742;2024-02-21T02:44:13;10.30;99.90
4596;DHT22;2310;49.978;8.742;2024-02-21T02:48:15;10.30;99.90
4596;DHT22;2310;49.978;8.742;2024-02-21T02:52:17;10.20;99.90
4596;DHT22;2310;49.978;8.742;2024-02-21T02:56:21;10.10;99.90
4596;DHT22;2310;49.978;8.742;2024-02-21T03:00:22;10.00;99.90
4596;DHT22;2310;49.978;8.742;2024-02-21T03:04:23;10.00;99.90
4596;DHT22;2310;49.978;8.742;2024-02-21T03:08:25;10.20;99.90
4596;DHT22;2310;49.978;8.742;2024-02-21T03:12:26;10.20;99.90
4596;DHT22;2310;49.978;8.742;2024-02-21T03:16:29;10.10;99.90
4596;DHT22;2310;49.978;8.742;2024-02-21T03:20:30;10.20;99.90
4596;DHT22;2310;49.978;8.742;2024-02-21T03:24:32;10.00;99.90
4596;DHT22;2310;49.978;8.742;2024-02-21T03:28:33;10.00;99.90
4596;DHT22;2310;49.978;8.742;2024-02-21T03:32:34;9.90;99.90
4596;DHT22;2310;49.978;8.742;2024-02-21T03:36:36;9.80;99.90
4596;DHT22;2310;49.978;8.742;2024-02-21T03:40:37;9.50;99.90
4596;DHT22;2310;49.978;8.742;2024-02-21T03:44:39;9.60;99.90
4596;DHT22;2310;49.978;8.742;2024-02-21T03:48:40;9.70;99.90
4596;DHT22;2310;49.978;8.742;2024-02-21T03:52:42;9.70;99.90
4596;DHT22;2310;49.978;8.742;2024-02-21T03:56:43;9.80;99.90
4596;DHT22;2310;49.978;8.742;2024-02-21T04:00:44;9.80;99.90
4596;DHT22;2310;49.978;8.742;2024-02-21T04:04:46;9.60;99.90
4596;DHT22;2310;49.978;8.742;2024-02-21T04:08:49;9.60;99.90
4596;DHT22;2310;49.978;8.742;2024-02-21T04:12:50;9.60;99.90
4596;DHT22;2310;49.978;8.742;2024-02-21T04:16:51;9.50;99.90
4596;DHT22;2310;49.978;8.742;2024-02-21T04:20:53;9.50;99.90
4596;DHT22;2310;49.978;8.742;2024-02-21T04:24:54;9.60;99.90
4596;DHT22;2310;49.978;8.742;2024-02-21T04:28:55;9.60;99.90
4596;DHT22;2310;49.978;8.742;2024-02-21T04:32:57;9.50;99.90
4596;DHT22;2310;49.978;8.742;2024-02-21T04:36:58;9.30;99.90
4596;DHT22;2310;49.978;8.742;2024-02-21T04:41:00;9.40;99.90
4596;DHT22;2310;49.978;8.742;2024-02-21T04:45:01;9.30;99.90
4596;DHT22;2310;49.978;8.742;2024-02-21T04:49:03;9.10;99.90
4596;DHT22;2310;49.978;8.742;2024-02-21T04:53:04;9.10;99.90
4596;DHT22;2310;49.978;8.742;2024-02-21T04:57:05;9.10;99.90
4596;DHT22;2310;49.978;8.742;2024-02-21T05:01:07;9.10;99.90
4596;DHT22;2310;49.978;8.742;2024-02-21T05:05:08;9.10;99.90
4596;DHT22;2310;49.978;8.742;2024-02-21T05:09:10;9.10;99.90
4596;DHT22;2310;49.978;8.742;2024-02-21T05:13:11;9.20;99.90
4596;DHT22;2310;49.978;8.742;2024-02-21T05:17:13;9.00;99.90
4596;DHT22;2310;49.978;8.742;2024-02-21T05:21:14;8.80;99.90
4596;DHT22;2310;49.978;8.742;2024-02-21T05:25:15;8.90;99.90
4596;DHT22;2310;49.978;8.742;2024-02-21T05:29:17;9.10;99.90
4596;DHT22;2310;49.978;8.742;2024-02-21T05:33:18;9.10;99.90
4596;DHT22;2310;49.978;8.742;2024-02-21T05:37:22;9.00;99.90
4596;DHT22;2310;49.978;8.742;2024-02-21T05:41:23;9.10;99.90
4596;DHT22;2310;49.978;8.742;2024-02-21T05:45:24;9.20;99.90
4596;DHT22;2310;49.978;8.742;2024-02-21T05:49:26;9.40;99.90
4596;DHT22;2310;49.978;8.742;2024-02-21T05:53:27;9.50;99.90
4596;DHT22;2310;49.978;8.742;2024-02-21T05:57:28;9.50;99.90
4596;DHT22;2310;49.978;8.742;2024-02-21T06:01:30;9.40;99.90
4596;DHT22;2310;49.978;8.742;2024-02-21T06:05:31;9.60;99.90
4596;DHT22;2310;49.978;8.742;2024-02-21T06:09:33;9.40;99.90
4596;DHT22;2310;49.978;8.742;2024-02-21T06:13:40;9.40;99.90
4596;DHT22;2310;49.978;8.742;2024-02-21T06:17:41;9.50;99.90
4596;DHT22;2310;49.978;8.742;2024-02-21T06:21:42;9.50;99.90
4596;DHT22;2310;49.978;8.742;2024-02-21T06:25:44;9.50;99.90
4596;DHT22;2310;49.978;8.742;2024-02-21T06:29:45;9.50;99.90
4596;DHT22;2310;49.978;8.742;2024-02-21T06:33:46;9.60;99.90
4596;DHT22;2310;49.978;8.742;2024-02-21T06:37:48;9.60;99.90
4596;DHT22;2310;49.978;8.742;2024-02-21T06:41:51;9.40;99.90
4596;DHT22;2310;49.978;8.742;2024-02-21T06:45:54;9.50;99.90
4596;DHT22;2310;49.978;8.742;2024-02-21T06:49:57;9.50;99.90
4596;DHT22;2310;49.978;8.742;2024-02-21T06:53:59;9.60;99.90
4596;DHT22;2310;49.978;8.742;2024-02-21T06:58:00;9.50;99.90
4596;DHT22;2310;49.978;8.742;2024-02-21T07:02:03;9.70;99.90
4596;DHT22;2310;49.978;8.742;2024-02-21T07:06:04;9.50;99.90
4596;DHT22;2310;49.978;8.742;2024-02-21T07:10:06;9.70;99.90
4596;DHT22;2310;49.978;8.742;2024-02-21T07:14:08;9.80;99.90
4596;DHT22;2310;49.978;8.742;2024-02-21T07:18:10;9.90;99.90
4596;DHT22;2310;49.978;8.742;2024-02-21T07:22:11;9.90;99.90
4596;DHT22;2310;49.978;8.742;2024-02-21T07:26:13;9.90;99.90
4596;DHT22;2310;49.978;8.742;2024-02-21T07:30:14;9.80;99.90
4596;DHT22;2310;49.978;8.742;2024-02-21T07:34:17;9.90;99.90
4596;DHT22;2310;49.978;8.742;2024-02-21T07:38:19;10.20;99.90
4596;DHT22;2310;49.978;8.742;2024-02-21T07:42:21;10.20;99.90
4596;DHT22;2310;49.978;8.742;2024-02-21T07:46:22;10.40;99.90
4596;DHT22;2310;49.978;8.742;2024-02-21T07:50:23;10.60;99.90
4596;DHT22;2310;49.978;8.742;2024-02-21T07:54:25;10.90;99.90
4596;DHT22;2310;49.978;8.742;2024-02-21T07:58:26;11.10;99.90
4596;DHT22;2310;49.978;8.742;2024-02-21T08:02:28;11.30;99.90
4596;DHT22;2310;49.978;8.742;2024-02-21T08:06:30;11.30;99.90
4596;DHT22;2310;49.978;8.742;2024-02-21T08:10:31;11.10;99.90
4596;DHT22;2310;49.978;8.742;2024-02-21T08:14:33;10.90;99.90
4596;DHT22;2310;49.978;8.742;2024-02-21T08:18:34;10.90;99.90
4596;DHT22;2310;49.978;8.742;2024-02-21T08:22:38;10.90;99.90
4596;DHT22;2310;49.978;8.742;2024-02-21T08:26:40;10.90;99.90
4596;DHT22;2310;49.978;8.742;2024-02-21T08:30:42;10.90;99.90
4596;DHT22;2310;49.978;8.742;2024-02-21T08:34:45;11.00;99.90
4596;DHT22;2310;49.978;8.742;2024-02-21T08:38:47;10.70;99.90
4596;DHT22;2310;49.978;8.742;2024-02-21T08:42:48;11.00;99.90
4596;DHT22;2310;49.978;8.742;2024-02-21T08:46:50;10.90;99.90
4596;DHT22;2310;49.978;8.742;2024-02-21T08:50:52;10.90;99.90
4596;DHT22;2310;49.978;8.742;2024-02-21T08:54:55;11.00;99.90
4596;DHT22;2310;49.978;8.742;2024-02-21T08:58:57;10.70;99.90
4596;DHT22;2310;49.978;8.742;2024-02-21T09:02:59;10.90;99.90
4596;DHT22;2310;49.978;8.742;2024-02-21T09:07:00;10.90;99.90
4596;DHT22;2310;49.978;8.742;2024-02-21T09:11:02;11.20;99.90
4596;DHT22;2310;49.978;8.742;2024-02-21T09:15:05;11.30;99.90
4596;DHT22;2310;49.978;8.742;2024-02-21T09:19:07;11.80;99.90
4596;DHT22;2310;49.978;8.742;2024-02-21T09:23:10;11.90;99.90
4596;DHT22;2310;49.978;8.742;2024-02-21T09:27:11;11.70;99.90
4596;DHT22;2310;49.978;8.742;2024-02-21T09:31:13;11.70;99.90
4596;DHT22;2310;49.978;8.742;2024-02-21T09:35:14;11.90;99.90
4596;DHT22;2310;49.978;8.742;2024-02-21T09:39:16;12.00;99.90
4596;DHT22;2310;49.978;8.742;2024-02-21T09:43:19;11.80;99.90
4596;DHT22;2310;49.978;8.742;2024-02-21T09:47:24;11.70;99.90
4596;DHT22;2310;49.978;8.742;2024-02-21T09:51:30;11.70;99.90
4596;DHT22;2310;49.978;8.742;2024-02-21T09:55:33;11.40;99.90
4596;DHT22;2310;49.978;8.742;2024-02-21T09:59:37;11.70;99.90
4596;DHT22;2310;49.978;8.742;2024-02-21T10:03:38;11.80;99.90
4596;DHT22;2310;49.978;8.742;2024-02-21T10:07:41;11.70;99.90
4596;DHT22;2310;49.978;8.742;2024-02-21T10:11:42;11.80;99.90
4596;DHT22;2310;49.978;8.742;2024-02-21T10:15:44;11.90;99.90
4596;DHT22;2310;49.978;8.742;2024-02-21T10:19:47;12.10;99.90
4596;DHT22;2310;49.978;8.742;2024-02-21T10:23:49;12.00;99.90
4596;DHT22;2310;49.978;8.742;2024-02-21T10:27:51;11.90;99.90
4596;DHT22;2310;49.978;8.742;2024-02-21T10:32:10;12.20;99.90
4596;DHT22;2310;49.978;8.742;2024-02-21T10:36:13;12.40;99.90
4596;DHT22;2310;49.978;8.742;2024-02-21T10:40:15;12.40;99.90
4596;DHT22;2310;49.978;8.742;2024-02-21T10:44:18;12.00;99.90
4596;DHT22;2310;49.978;8.742;2024-02-21T10:48:27;12.00;99.90
4596;DHT22;2310;49.978;8.742;2024-02-21T10:52:48;12.30;99.90
4596;DHT22;2310;49.978;8.742;2024-02-21T10:56:51;12.70;99.90
4596;DHT22;2310;49.978;8.742;2024-02-21T11:00:54;12.80;99.90
4596;DHT22;2310;49.978;8.742;2024-02-21T11:04:56;12.60;99.90
4596;DHT22;2310;49.978;8.742;2024-02-21T11:09:03;12.30;99.90
4596;DHT22;2310;49.978;8.742;2024-02-21T11:13:07;12.40;99.90
4596;DHT22;2310;49.978;8.742;2024-02-21T11:17:17;12.60;99.90
4596;DHT22;2310;49.978;8.742;2024-02-21T11:21:21;12.70;99.90
4596;DHT22;2310;49.978;8.742;2024-02-21T11:25:23;13.00;99.90
4596;DHT22;2310;49.978;8.742;2024-02-21T11:29:26;12.60;99.90
4596;DHT22;2310;49.978;8.742;2024-02-21T11:33:28;12.90;99.90
4596;DHT22;2310;49.978;8.742;2024-02-21T11:37:33;12.80;99.90
4596;DHT22;2310;49.978;8.742;2024-02-21T11:41:35;12.90;99.90
4596;DHT22;2310;49.978;8.742;2024-02-21T11:45:37;12.80;99.90
4596;DHT22;2310;49.978;8.742;2024-02-21T11:49:45;12.90;99.90
4596;DHT22;2310;49.978;8.742;2024-02-21T11:53:44;12.70;99.90
4596;DHT22;2310;49.978;8.742;2024-02-21T11:57:48;12.80;99.90
4596;DHT22;2310;49.978;8.742;2024-02-21T12:01:50;12.90;99.90
4596;DHT22;2310;49.978;8.742;2024-02-21T12:05:53;12.70;99.90
4596;DHT22;2310;49.978;8.742;2024-02-21T12:10:01;12.60;99.90
4596;DHT22;2310;49.978;8.742;2024-02-21T12:14:04;12.70;99.90
4596;DHT22;2310;49.978;8.742;2024-02-21T12:18:07;13.00;99.90
4596;DHT22;2310;49.978;8.742;2024-02-21T12:22:24;12.70;99.90
4596;DHT22;2310;49.978;8.742;2024-02-21T12:26:16;12.90;99.90
4596;DHT22;2310;49.978;8.742;2024-02-21T12:30:18;13.10;99.90
4596;DHT22;2310;49.978;8.742;2024-02-21T12:34:23;12.90;99.90
4596;DHT22;2310;49.978;8.742;2024-02-21T12:38:27;12.80;99.90
4596;DHT22;2310;49.978;8.742;2024-02-21T12:42:29;13.30;99.90
4596;DHT22;2310;49.978;8.742;2024-02-21T12:46:35;13.50;99.90
4596;DHT22;2310;49.978;8.742;2024-02-21T12:50:37;13.30;99.90
4596;DHT22;2310;49.978;8.742;2024-02-21T12:54:42;13.50;99.90
4596;DHT22;2310;49.978;8.742;2024-02-21T12:58:43;14.00;99.90
4596;DHT22;2310;49.978;8.742;2024-02-21T13:02:45;13.90;99.90
4596;DHT22;2310;49.978;8.742;2024-02-21T13:06:48;14.00;99.90
4596;DHT22;2310;49.978;8.742;2024-02-21T13:10:50;13.50;99.90
4596;DHT22;2310;49.978;8.742;2024-02-21T13:14:53;13.20;99.90
4596;DHT22;2310;49.978;8.742;2024-02-21T13:18:55;13.80;99.90
4596;DHT22;2310;49.978;8.742;2024-02-21T13:22:56;13.70;99.90
4596;DHT22;2310;49.978;8.742;2024-02-21T13:26:58;13.70;99.90
4596;DHT22;2310;49.978;8.742;2024-02-21T13:30:59;13.40;99.90
4596;DHT22;2310;49.978;8.742;2024-02-21T13:35:01;12.90;99.90
4596;DHT22;2310;49.978;8.742;2024-02-21T13:39:02;12.90;99.90
4596;DHT22;2310;49.978;8.742;2024-02-21T13:43:06;13.20;99.90
4596;DHT22;2310;49.978;8.742;2024-02-21T13:47:09;13.20;99.90
4596;DHT22;2310;49.978;8.742;2024-02-21T13:51:12;13.20;99.90
4596;DHT22;2310;49.978;8.742;2024-02-21T13:55:13;13.20;99.90
4596;DHT22;2310;49.978;8.742;2024-02-21T13:59:15;13.20;99.90
4596;DHT22;2310;49.978;8.742;2024-02-21T14:03:17;13.20;99.90
4596;DHT22;2310;49.978;8.742;2024-02-21T14:07:20;13.40;99.90
4596;DHT22;2310;49.978;8.742;2024-02-21T14:11:21;13.40;99.90
4596;DHT22;2310;49.978;8.742;2024-02-21T14:15:23;13.50;99.90
4596;DHT22;2310;49.978;8.742;2024-02-21T14:19:26;13.60;99.90
4596;DHT22;2310;49.978;8.742;2024-02-21T14:23:28;13.60;99.90
4596;DHT22;2310;49.978;8.742;2024-02-21T14:27:29;13.10;99.90
4596;DHT22;2310;49.978;8.742;2024-02-21T14:31:34;13.20;99.90
4596;DHT22;2310;49.978;8.742;2024-02-21T14:35:36;13.30;99.90
4596;DHT22;2310;49.978;8.742;2024-02-21T14:39:38;13.40;99.90
4596;DHT22;2310;49.978;8.742;2024-02-21T14:43:41;13.70;99.90
4596;DHT22;2310;49.978;8.742;2024-02-21T14:47:44;13.40;99.90
4596;DHT22;2310;49.978;8.742;2024-02-21T14:51:45;13.50;99.90
4596;DHT22;2310;49.978;8.742;2024-02-21T14:55:47;13.10;99.90
4596;DHT22;2310;49.978;8.742;2024-02-21T14:59:49;13.30;99.90
4596;DHT22;2310;49.978;8.742;2024-02-21T15:03:51;13.40;99.90
4596;DHT22;2310;49.978;8.742;2024-02-21T15:07:53;13.50;99.90
4596;DHT22;2310;49.978;8.742;2024-02-21T15:11:54;13.40;99.90
4596;DHT22;2310;49.978;8.742;2024-02-21T15:15:56;13.40;99.90
4596;DHT22;2310;49.978;8.742;2024-02-21T15:19:57;13.30;99.90
4596;DHT22;2310;49.978;8.742;2024-02-21T15:24:00;13.10;99.90
4596;DHT22;2310;49.978;8.742;2024-02-21T15:28:03;13.20;99.90
4596;DHT22;2310;49.978;8.742;2024-02-21T15:32:08;13.00;99.90
4596;DHT22;2310;49.978;8.742;2024-02-21T15:36:10;12.90;99.90
4596;DHT22;2310;49.978;8.742;2024-02-21T15:40:12;12.90;99.90
4596;DHT22;2310;49.978;8.742;2024-02-21T15:44:13;12.90;99.90
4596;DHT22;2310;49.978;8.742;2024-02-21T15:48:15;12.80;99.90
4596;DHT22;2310;49.978;8.742;2024-02-21T15:52:17;12.90;99.90
4596;DHT22;2310;49.978;8.742;2024-02-21T15:56:18;12.80;99.90
4596;DHT22;2310;49.978;8.742;2024-02-21T16:00:20;12.70;99.90
4596;DHT22;2310;49.978;8.742;2024-02-21T16:04:23;12.70;99.90
4596;DHT22;2310;49.978;8.742;2024-02-21T16:08:25;12.80;99.90
4596;DHT22;2310;49.978;8.742;2024-02-21T16:12:29;12.80;99.90
4596;DHT22;2310;49.978;8.742;2024-02-21T16:16:32;12.60;99.90
4596;DHT22;2310;49.978;8.742;2024-02-21T16:20:34;12.40;99.90
4596;DHT22;2310;49.978;8.742;2024-02-21T16:24:36;12.40;99.90
4596;DHT22;2310;49.978;8.742;2024-02-21T16:28:38;12.30;99.90
4596;DHT22;2310;49.978;8.742;2024-02-21T16:32:39;12.40;99.90
4596;DHT22;2310;49.978;8.742;2024-02-21T16:36:43;12.50;99.90
4596;DHT22;2310;49.978;8.742;2024-02-21T16:40:45;12.40;99.90
4596;DHT22;2310;49.978;8.742;2024-02-21T16:44:47;12.40;99.90
4596;DHT22;2310;49.978;8.742;2024-02-21T16:48:49;12.50;99.90
4596;DHT22;2310;49.978;8.742;2024-02-21T16:52:51;12.30;99.90
4596;DHT22;2310;49.978;8.742;2024-02-21T16:56:53;12.30;99.90
4596;DHT22;2310;49.978;8.742;2024-02-21T17:00:55;12.30;99.90
4596;DHT22;2310;49.978;8.742;2024-02-21T17:04:57;12.30;99.90
4596;DHT22;2310;49.978;8.742;2024-02-21T17:09:02;12.10;99.90
4596;DHT22;2310;49.978;8.742;2024-02-21T17:13:04;11.90;99.90
4596;DHT22;2310;49.978;8.742;2024-02-21T17:17:06;12.10;99.90
4596;DHT22;2310;49.978;8.742;2024-02-21T17:21:08;12.30;99.90
4596;DHT22;2310;49.978;8.742;2024-02-21T17:25:10;12.30;97.70
4596;DHT22;2310;49.978;8.742;2024-02-21T17:29:12;12.40;97.80
4596;DHT22;2310;49.978;8.742;2024-02-21T17:33:14;12.20;93.20
4596;DHT22;2310;49.978;8.742;2024-02-21T17:37:16;12.10;91.70
4596;DHT22;2310;49.978;8.742;2024-02-21T17:41:18;12.00;90.60
4596;DHT22;2310;49.978;8.742;2024-02-21T17:45:19;12.10;90.70
4596;DHT22;2310;49.978;8.742;2024-02-21T17:49:21;12.20;90.40
4596;DHT22;2310;49.978;8.742;2024-02-21T17:53:22;11.90;92.20
4596;DHT22;2310;49.978;8.742;2024-02-21T17:57:24;12.00;93.80
4596;DHT22;2310;49.978;8.742;2024-02-21T18:01:27;11.90;94.30
4596;DHT22;2310;49.978;8.742;2024-02-21T18:05:28;11.90;94.70
4596;DHT22;2310;49.978;8.742;2024-02-21T18:09:32;12.00;95.40
4596;DHT22;2310;49.978;8.742;2024-02-21T18:13:35;12.00;95.30
4596;DHT22;2310;49.978;8.742;2024-02-21T18:17:37;11.90;96.80
4596;DHT22;2310;49.978;8.742;2024-02-21T18:21:39;12.00;98.10
4596;DHT22;2310;49.978;8.742;2024-02-21T18:25:41;11.90;98.90
4596;DHT22;2310;49.978;8.742;2024-02-21T18:29:42;12.00;98.80
4596;DHT22;2310;49.978;8.742;2024-02-21T18:33:46;11.90;99.50
4596;DHT22;2310;49.978;8.742;2024-02-21T18:37:47;12.10;99.50
4596;DHT22;2310;49.978;8.742;2024-02-21T18:41:51;11.90;99.00
4596;DHT22;2310;49.978;8.742;2024-02-21T18:45:52;11.90;98.80
4596;DHT22;2310;49.978;8.742;2024-02-21T18:49:53;12.20;98.80
4596;DHT22;2310;49.978;8.742;2024-02-21T18:53:55;12.10;96.60
4596;DHT22;2310;49.978;8.742;2024-02-21T18:57:57;12.30;97.40
4596;DHT22;2310;49.978;8.742;2024-02-21T19:01:58;12.20;98.30
4596;DHT22;2310;49.978;8.742;2024-02-21T19:05:59;12.40;95.80
4596;DHT22;2310;49.978;8.742;2024-02-21T19:10:01;12.20;97.70
4596;DHT22;2310;49.978;8.742;2024-02-21T19:14:04;12.20;97.70
4596;DHT22;2310;49.978;8.742;2024-02-21T19:18:07;12.10;98.40
4596;DHT22;2310;49.978;8.742;2024-02-21T19:22:10;12.10;97.10
4596;DHT22;2310;49.978;8.742;2024-02-21T19:26:12;12.20;97.60
4596;DHT22;2310;49.978;8.742;2024-02-21T19:30:14;12.30;97.10
4596;DHT22;2310;49.978;8.742;2024-02-21T19:34:15;12.20;97.60
4596;DHT22;2310;49.978;8.742;2024-02-21T19:38:17;12.30;98.30
4596;DHT22;2310;49.978;8.742;2024-02-21T19:42:18;12.30;99.10
4596;DHT22;2310;49.978;8.742;2024-02-21T19:46:20;12.30;98.10
4596;DHT22;2310;49.978;8.742;2024-02-21T19:50:21;12.30;99.90
4596;DHT22;2310;49.978;8.742;2024-02-21T19:54:23;12.40;99.90
4596;DHT22;2310;49.978;8.742;2024-02-21T19:58:26;12.40;99.90
4596;DHT22;2310;49.978;8.742;2024-02-21T20:02:27;12.20;99.90
4596;DHT22;2310;49.978;8.742;2024-02-21T20:06:29;12.20;99.90
4596;DHT22;2310;49.978;8.742;2024-02-21T20:10:30;12.00;99.90
4596;DHT22;2310;49.978;8.742;2024-02-21T20:14:32;11.90;99.90
4596;DHT22;2310;49.978;8.742;2024-02-21T20:18:33;11.90;99.90
4596;DHT22;2310;49.978;8.742;2024-02-21T20:22:35;11.80;99.90
4596;DHT22;2310;49.978;8.742;2024-02-21T20:26:36;11.70;99.90
4596;DHT22;2310;49.978;8.742;2024-02-21T20:30:41;11.70;99.90
4596;DHT22;2310;49.978;8.742;2024-02-21T20:34:42;11.80;99.90
4596;DHT22;2310;49.978;8.742;2024-02-21T20:38:44;11.90;99.90
4596;DHT22;2310;49.978;8.742;2024-02-21T20:42:45;11.70;99.90
4596;DHT22;2310;49.978;8.742;2024-02-21T20:46:47;11.30;99.90
4596;DHT22;2310;49.978;8.742;2024-02-21T20:50:48;11.10;99.90
4596;DHT22;2310;49.978;8.742;2024-02-21T20:54:50;11.30;99.90
4596;DHT22;2310;49.978;8.742;2024-02-21T20:58:51;11.30;99.90
4596;DHT22;2310;49.978;8.742;2024-02-21T21:02:54;11.10;99.90
4596;DHT22;2310;49.978;8.742;2024-02-21T21:06:55;10.90;99.90
4596;DHT22;2310;49.978;8.742;2024-02-21T21:10:56;10.60;99.90
4596;DHT22;2310;49.978;8.742;2024-02-21T21:14:58;10.70;99.90
4596;DHT22;2310;49.978;8.742;2024-02-21T21:18:59;10.60;99.90
4596;DHT22;2310;49.978;8.742;2024-02-21T21:23:01;10.50;99.90
4596;DHT22;2310;49.978;8.742;2024-02-21T21:27:03;10.50;99.90
4596;DHT22;2310;49.978;8.742;2024-02-21T21:31:05;10.80;99.90
4596;DHT22;2310;49.978;8.742;2024-02-21T21:35:09;10.60;99.90
4596;DHT22;2310;49.978;8.742;2024-02-21T21:39:11;10.70;99.90
4596;DHT22;2310;49.978;8.742;2024-02-21T21:43:14;10.70;99.90
4596;DHT22;2310;49.978;8.742;2024-02-21T21:47:18;10.70;99.90
4596;DHT22;2310;49.978;8.742;2024-02-21T21:51:19;10.70;99.90
4596;DHT22;2310;49.978;8.742;2024-02-21T21:55:21;10.50;99.90
4596;DHT22;2310;49.978;8.742;2024-02-21T21:59:22;10.60;99.90
4596;DHT22;2310;49.978;8.742;2024-02-21T22:03:24;10.50;99.90
4596;DHT22;2310;49.978;8.742;2024-02-21T22:07:25;10.40;99.90
4596;DHT22;2310;49.978;8.742;2024-02-21T22:11:26;10.50;99.90
4596;DHT22;2310;49.978;8.742;2024-02-21T22:15:28;10.20;99.90
4596;DHT22;2310;49.978;8.742;2024-02-21T22:19:30;10.10;99.90
4596;DHT22;2310;49.978;8.742;2024-02-21T22:23:31;10.20;99.90
4596;DHT22;2310;49.978;8.742;2024-02-21T22:27:34;10.20;99.90
4596;DHT22;2310;49.978;8.742;2024-02-21T22:31:36;10.20;99.90
4596;DHT22;2310;49.978;8.742;2024-02-21T22:35:37;10.20;99.90
4596;DHT22;2310;49.978;8.742;2024-02-21T22:39:38;10.20;99.90
4596;DHT22;2310;49.978;8.742;2024-02-21T22:43:40;10.20;99.90
4596;DHT22;2310;49.978;8.742;2024-02-21T22:47:41;10.10;99.90
4596;DHT22;2310;49.978;8.742;2024-02-21T22:51:43;10.00;99.90
4596;DHT22;2310;49.978;8.742;2024-02-21T22:55:44;10.00;99.90
4596;DHT22;2310;49.978;8.742;2024-02-21T22:59:45;9.80;99.90
4596;DHT22;2310;49.978;8.742;2024-02-21T23:03:47;9.80;99.90
4596;DHT22;2310;49.978;8.742;2024-02-21T23:07:49;9.90;99.90
4596;DHT22;2310;49.978;8.742;2024-02-21T23:11:53;10.20;99.90
4596;DHT22;2310;49.978;8.742;2024-02-21T23:15:54;10.10;99.90
4596;DHT22;2310;49.978;8.742;2024-02-21T23:19:56;10.10;99.90
4596;DHT22;2310;49.978;8.742;2024-02-21T23:23:57;10.10;99.90
4596;DHT22;2310;49.978;8.742;2024-02-21T23:27:58;10.00;99.90
4596;DHT22;2310;49.978;8.742;2024-02-21T23:32:00;10.10;99.90
4596;DHT22;2310;49.978;8.742;2024-02-21T23:36:04;10.00;99.90
4596;DHT22;2310;49.978;8.742;2024-02-21T23:40:07;10.10;99.90
4596;DHT22;2310;49.978;8.742;2024-02-21T23:44:11;10.10;99.90
4596;DHT22;2310;49.978;8.742;2024-02-21T23:48:14;10.30;99.90
4596;DHT22;2310;49.978;8.742;2024-02-21T23:52:16;10.10;99.90
4596;DHT22;2310;49.978;8.742;2024-02-21T23:56:17;10.10;99.90
